sensor_id;sensor_type;location;lat;lon;timestamp;P1;durP1;ratioP1;P2;durP2;ratioP2
50671;SDS011;46021;55.882;37.654;2023-08-31T00:00:09;7.13;;;4.47;;
50671;SDS011;46021;55.882;37.654;2023-08-31T00:02:38;7.82;;;4.55;;
50671;SDS011;46021;55.882;37.654;2023-08-31T00:05:07;7.75;;;4.90;;
50671;SDS011;46021;55.882;37.654;2023-08-31T00:10:03;10.00;;;4.32;;
50671;SDS011;46021;55.882;37.654;2023-08-31T00:12:35;8.13;;;5.63;;
50671;SDS011;46021;55.882;37.654;2023-08-31T00:15:03;8.65;;;5.53;;
50671;SDS011;46021;55.882;37.654;2023-08-31T00:17:31;8.02;;;5.60;;
50671;SDS011;46021;55.882;37.654;2023-08-31T00:19:58;10.53;;;5.97;;
50671;SDS011;46021;55.882;37.654;2023-08-31T00:22:26;9.48;;;5.55;;
50671;SDS011;46021;55.882;37.654;2023-08-31T00:24:54;10.70;;;5.88;;
50671;SDS011;46021;55.882;37.654;2023-08-31T00:27:22;9.20;;;5.70;;
50671;SDS011;46021;55.882;37.654;2023-08-31T00:29:49;10.90;;;6.10;;
50671;SDS011;46021;55.882;37.654;2023-08-31T00:32:16;8.40;;;5.93;;
50671;SDS011;46021;55.882;37.654;2023-08-31T00:34:44;8.35;;;5.32;;
50671;SDS011;46021;55.882;37.654;2023-08-31T00:37:11;8.82;;;4.72;;
50671;SDS011;46021;55.882;37.654;2023-08-31T00:39:39;8.35;;;5.53;;
50671;SDS011;46021;55.882;37.654;2023-08-31T00:42:07;9.38;;;5.47;;
50671;SDS011;46021;55.882;37.654;2023-08-31T00:44:36;8.10;;;5.22;;
50671;SDS011;46021;55.882;37.654;2023-08-31T00:47:04;7.00;;;5.25;;
50671;SDS011;46021;55.882;37.654;2023-08-31T00:49:32;10.75;;;6.50;;
50671;SDS011;46021;55.882;37.654;2023-08-31T00:52:00;11.43;;;6.95;;
50671;SDS011;46021;55.882;37.654;2023-08-31T00:54:29;13.07;;;7.55;;
50671;SDS011;46021;55.882;37.654;2023-08-31T00:56:56;15.60;;;7.50;;
50671;SDS011;46021;55.882;37.654;2023-08-31T00:59:23;10.00;;;7.30;;
50671;SDS011;46021;55.882;37.654;2023-08-31T01:01:55;14.05;;;6.78;;
50671;SDS011;46021;55.882;37.654;2023-08-31T01:04:32;11.85;;;7.45;;
50671;SDS011;46021;55.882;37.654;2023-08-31T01:07:13;10.98;;;7.63;;
50671;SDS011;46021;55.882;37.654;2023-08-31T01:09:47;13.25;;;8.75;;
50671;SDS011;46021;55.882;37.654;2023-08-31T01:12:26;11.23;;;6.82;;
50671;SDS011;46021;55.882;37.654;2023-08-31T01:14:59;9.77;;;6.88;;
50671;SDS011;46021;55.882;37.654;2023-08-31T01:17:35;11.93;;;7.57;;
50671;SDS011;46021;55.882;37.654;2023-08-31T01:20:08;10.93;;;7.15;;
50671;SDS011;46021;55.882;37.654;2023-08-31T01:22:39;9.52;;;6.18;;
50671;SDS011;46021;55.882;37.654;2023-08-31T01:25:11;11.35;;;7.07;;
50671;SDS011;46021;55.882;37.654;2023-08-31T01:27:39;12.05;;;8.13;;
50671;SDS011;46021;55.882;37.654;2023-08-31T01:30:07;11.82;;;7.68;;
50671;SDS011;46021;55.882;37.654;2023-08-31T01:32:34;10.73;;;7.38;;
50671;SDS011;46021;55.882;37.654;2023-08-31T01:35:03;11.63;;;7.57;;
50671;SDS011;46021;55.882;37.654;2023-08-31T01:37:34;10.07;;;6.88;;
50671;SDS011;46021;55.882;37.654;2023-08-31T01:40:09;11.63;;;6.65;;
50671;SDS011;46021;55.882;37.654;2023-08-31T01:42:45;10.30;;;6.88;;
50671;SDS011;46021;55.882;37.654;2023-08-31T01:45:14;11.05;;;7.10;;
50671;SDS011;46021;55.882;37.654;2023-08-31T01:47:45;12.43;;;8.30;;
50671;SDS011;46021;55.882;37.654;2023-08-31T01:50:12;13.52;;;7.85;;
50671;SDS011;46021;55.882;37.654;2023-08-31T01:52:40;14.00;;;8.27;;
50671;SDS011;46021;55.882;37.654;2023-08-31T01:55:07;12.77;;;7.20;;
50671;SDS011;46021;55.882;37.654;2023-08-31T01:57:36;9.15;;;6.85;;
50671;SDS011;46021;55.882;37.654;2023-08-31T02:00:17;15.57;;;7.80;;
50671;SDS011;46021;55.882;37.654;2023-08-31T02:02:48;11.45;;;7.72;;
50671;SDS011;46021;55.882;37.654;2023-08-31T02:05:15;15.20;;;9.03;;
50671;SDS011;46021;55.882;37.654;2023-08-31T02:07:42;13.82;;;9.32;;
50671;SDS011;46021;55.882;37.654;2023-08-31T02:10:09;13.70;;;8.23;;
50671;SDS011;46021;55.882;37.654;2023-08-31T02:12:59;15.43;;;9.20;;
50671;SDS011;46021;55.882;37.654;2023-08-31T02:15:26;13.18;;;8.25;;
50671;SDS011;46021;55.882;37.654;2023-08-31T02:17:53;17.13;;;8.90;;
50671;SDS011;46021;55.882;37.654;2023-08-31T02:20:21;15.70;;;8.95;;
50671;SDS011;46021;55.882;37.654;2023-08-31T02:22:51;14.25;;;9.20;;
50671;SDS011;46021;55.882;37.654;2023-08-31T02:25:18;13.23;;;9.17;;
50671;SDS011;46021;55.882;37.654;2023-08-31T02:30:16;17.33;;;10.20;;
50671;SDS011;46021;55.882;37.654;2023-08-31T02:32:43;15.52;;;8.60;;
50671;SDS011;46021;55.882;37.654;2023-08-31T02:35:13;16.00;;;9.05;;
50671;SDS011;46021;55.882;37.654;2023-08-31T02:37:40;16.27;;;9.10;;
50671;SDS011;46021;55.882;37.654;2023-08-31T02:40:08;14.10;;;8.83;;
50671;SDS011;46021;55.882;37.654;2023-08-31T02:42:36;13.50;;;8.85;;
50671;SDS011;46021;55.882;37.654;2023-08-31T02:45:03;13.82;;;9.35;;
50671;SDS011;46021;55.882;37.654;2023-08-31T02:47:32;14.48;;;9.43;;
50671;SDS011;46021;55.882;37.654;2023-08-31T02:49:59;14.38;;;9.13;;
50671;SDS011;46021;55.882;37.654;2023-08-31T02:52:29;13.30;;;8.70;;
50671;SDS011;46021;55.882;37.654;2023-08-31T02:54:56;14.13;;;8.00;;
50671;SDS011;46021;55.882;37.654;2023-08-31T02:57:29;15.32;;;8.13;;
50671;SDS011;46021;55.882;37.654;2023-08-31T02:59:56;12.50;;;8.47;;
50671;SDS011;46021;55.882;37.654;2023-08-31T03:02:23;15.73;;;9.82;;
50671;SDS011;46021;55.882;37.654;2023-08-31T03:04:52;14.60;;;10.17;;
50671;SDS011;46021;55.882;37.654;2023-08-31T03:07:19;16.33;;;9.90;;
50671;SDS011;46021;55.882;37.654;2023-08-31T03:09:48;16.85;;;9.32;;
50671;SDS011;46021;55.882;37.654;2023-08-31T03:12:16;13.10;;;8.90;;
50671;SDS011;46021;55.882;37.654;2023-08-31T03:14:43;13.20;;;8.10;;
50671;SDS011;46021;55.882;37.654;2023-08-31T03:17:10;15.48;;;8.88;;
50671;SDS011;46021;55.882;37.654;2023-08-31T03:19:39;13.85;;;8.70;;
50671;SDS011;46021;55.882;37.654;2023-08-31T03:22:07;13.10;;;8.67;;
50671;SDS011;46021;55.882;37.654;2023-08-31T03:24:35;13.15;;;9.32;;
50671;SDS011;46021;55.882;37.654;2023-08-31T03:27:01;18.88;;;9.13;;
50671;SDS011;46021;55.882;37.654;2023-08-31T03:29:29;14.05;;;8.25;;
50671;SDS011;46021;55.882;37.654;2023-08-31T03:31:57;16.35;;;7.60;;
50671;SDS011;46021;55.882;37.654;2023-08-31T03:34:24;12.07;;;8.87;;
50671;SDS011;46021;55.882;37.654;2023-08-31T03:36:55;18.35;;;8.48;;
50671;SDS011;46021;55.882;37.654;2023-08-31T03:39:24;15.82;;;8.13;;
50671;SDS011;46021;55.882;37.654;2023-08-31T03:41:51;14.43;;;8.05;;
50671;SDS011;46021;55.882;37.654;2023-08-31T03:44:20;14.40;;;8.75;;
50671;SDS011;46021;55.882;37.654;2023-08-31T03:46:49;16.20;;;8.57;;
50671;SDS011;46021;55.882;37.654;2023-08-31T03:49:16;13.52;;;8.73;;
50671;SDS011;46021;55.882;37.654;2023-08-31T03:51:44;13.05;;;8.10;;
50671;SDS011;46021;55.882;37.654;2023-08-31T03:54:11;11.65;;;7.45;;
50671;SDS011;46021;55.882;37.654;2023-08-31T03:56:40;16.85;;;8.55;;
50671;SDS011;46021;55.882;37.654;2023-08-31T03:59:07;9.88;;;7.20;;
50671;SDS011;46021;55.882;37.654;2023-08-31T04:01:34;15.32;;;7.57;;
50671;SDS011;46021;55.882;37.654;2023-08-31T04:04:01;11.80;;;6.77;;
50671;SDS011;46021;55.882;37.654;2023-08-31T04:06:29;12.45;;;7.30;;
50671;SDS011;46021;55.882;37.654;2023-08-31T04:08:56;11.27;;;6.88;;
50671;SDS011;46021;55.882;37.654;2023-08-31T04:11:24;10.32;;;6.75;;
50671;SDS011;46021;55.882;37.654;2023-08-31T04:13:53;10.63;;;7.15;;
50671;SDS011;46021;55.882;37.654;2023-08-31T04:16:20;12.75;;;8.13;;
50671;SDS011;46021;55.882;37.654;2023-08-31T04:18:47;28.65;;;14.77;;
50671;SDS011;46021;55.882;37.654;2023-08-31T04:21:16;15.93;;;9.65;;
50671;SDS011;46021;55.882;37.654;2023-08-31T04:23:44;13.05;;;7.70;;
50671;SDS011;46021;55.882;37.654;2023-08-31T04:26:11;11.77;;;8.10;;
50671;SDS011;46021;55.882;37.654;2023-08-31T04:28:38;12.35;;;7.75;;
50671;SDS011;46021;55.882;37.654;2023-08-31T04:31:07;15.68;;;8.10;;
50671;SDS011;46021;55.882;37.654;2023-08-31T04:33:35;15.48;;;7.88;;
50671;SDS011;46021;55.882;37.654;2023-08-31T04:36:03;13.23;;;8.18;;
50671;SDS011;46021;55.882;37.654;2023-08-31T04:38:30;13.07;;;7.93;;
50671;SDS011;46021;55.882;37.654;2023-08-31T04:40:58;13.93;;;7.57;;
50671;SDS011;46021;55.882;37.654;2023-08-31T04:43:25;14.85;;;7.95;;
50671;SDS011;46021;55.882;37.654;2023-08-31T04:45:52;15.07;;;8.52;;
50671;SDS011;46021;55.882;37.654;2023-08-31T04:48:20;14.63;;;8.00;;
50671;SDS011;46021;55.882;37.654;2023-08-31T04:50:47;16.40;;;8.45;;
50671;SDS011;46021;55.882;37.654;2023-08-31T04:53:14;12.70;;;7.65;;
50671;SDS011;46021;55.882;37.654;2023-08-31T04:55:41;14.37;;;7.80;;
50671;SDS011;46021;55.882;37.654;2023-08-31T04:58:08;36.67;;;20.80;;
50671;SDS011;46021;55.882;37.654;2023-08-31T05:00:35;15.23;;;10.00;;
50671;SDS011;46021;55.882;37.654;2023-08-31T05:03:04;12.55;;;8.27;;
50671;SDS011;46021;55.882;37.654;2023-08-31T05:05:32;12.38;;;7.95;;
50671;SDS011;46021;55.882;37.654;2023-08-31T05:08:00;17.50;;;8.75;;
50671;SDS011;46021;55.882;37.654;2023-08-31T05:10:27;11.43;;;7.60;;
50671;SDS011;46021;55.882;37.654;2023-08-31T05:12:53;15.85;;;7.57;;
50671;SDS011;46021;55.882;37.654;2023-08-31T05:15:20;15.38;;;7.88;;
50671;SDS011;46021;55.882;37.654;2023-08-31T05:17:48;14.93;;;7.13;;
50671;SDS011;46021;55.882;37.654;2023-08-31T05:20:15;12.77;;;7.65;;
50671;SDS011;46021;55.882;37.654;2023-08-31T05:22:44;15.50;;;7.07;;
50671;SDS011;46021;55.882;37.654;2023-08-31T05:25:12;9.88;;;6.38;;
50671;SDS011;46021;55.882;37.654;2023-08-31T05:27:38;11.20;;;6.82;;
50671;SDS011;46021;55.882;37.654;2023-08-31T05:30:06;11.40;;;7.45;;
50671;SDS011;46021;55.882;37.654;2023-08-31T05:32:34;14.05;;;6.97;;
50671;SDS011;46021;55.882;37.654;2023-08-31T05:35:01;15.50;;;6.90;;
50671;SDS011;46021;55.882;37.654;2023-08-31T05:37:31;10.02;;;6.15;;
50671;SDS011;46021;55.882;37.654;2023-08-31T05:40:02;12.63;;;6.55;;
50671;SDS011;46021;55.882;37.654;2023-08-31T05:42:35;8.32;;;5.40;;
50671;SDS011;46021;55.882;37.654;2023-08-31T05:45:02;9.45;;;5.32;;
50671;SDS011;46021;55.882;37.654;2023-08-31T05:47:30;10.73;;;5.53;;
50671;SDS011;46021;55.882;37.654;2023-08-31T05:49:57;9.15;;;5.43;;
50671;SDS011;46021;55.882;37.654;2023-08-31T05:52:24;11.80;;;5.90;;
50671;SDS011;46021;55.882;37.654;2023-08-31T05:54:51;10.52;;;5.45;;
50671;SDS011;46021;55.882;37.654;2023-08-31T05:57:19;12.95;;;6.22;;
50671;SDS011;46021;55.882;37.654;2023-08-31T05:59:47;7.95;;;5.55;;
50671;SDS011;46021;55.882;37.654;2023-08-31T06:02:14;11.32;;;5.43;;
50671;SDS011;46021;55.882;37.654;2023-08-31T06:04:41;11.13;;;6.43;;
50671;SDS011;46021;55.882;37.654;2023-08-31T06:07:08;10.90;;;7.78;;
50671;SDS011;46021;55.882;37.654;2023-08-31T06:09:35;18.33;;;7.55;;
50671;SDS011;46021;55.882;37.654;2023-08-31T06:12:03;21.40;;;6.40;;
50671;SDS011;46021;55.882;37.654;2023-08-31T06:14:33;11.52;;;6.28;;
50671;SDS011;46021;55.882;37.654;2023-08-31T06:17:01;11.13;;;6.35;;
50671;SDS011;46021;55.882;37.654;2023-08-31T06:19:28;13.20;;;6.47;;
50671;SDS011;46021;55.882;37.654;2023-08-31T06:21:55;13.98;;;7.20;;
50671;SDS011;46021;55.882;37.654;2023-08-31T06:24:22;11.68;;;6.45;;
50671;SDS011;46021;55.882;37.654;2023-08-31T06:26:49;13.27;;;7.40;;
50671;SDS011;46021;55.882;37.654;2023-08-31T06:29:17;12.05;;;5.75;;
50671;SDS011;46021;55.882;37.654;2023-08-31T06:31:45;8.93;;;6.18;;
50671;SDS011;46021;55.882;37.654;2023-08-31T06:34:12;9.50;;;6.07;;
50671;SDS011;46021;55.882;37.654;2023-08-31T06:36:39;12.93;;;5.43;;
50671;SDS011;46021;55.882;37.654;2023-08-31T06:39:06;14.93;;;6.25;;
50671;SDS011;46021;55.882;37.654;2023-08-31T06:41:34;9.40;;;5.60;;
50671;SDS011;46021;55.882;37.654;2023-08-31T06:44:01;10.02;;;6.07;;
50671;SDS011;46021;55.882;37.654;2023-08-31T06:46:29;9.27;;;5.75;;
50671;SDS011;46021;55.882;37.654;2023-08-31T06:49:00;10.43;;;6.10;;
50671;SDS011;46021;55.882;37.654;2023-08-31T06:51:27;10.13;;;6.45;;
50671;SDS011;46021;55.882;37.654;2023-08-31T06:53:54;11.68;;;6.97;;
50671;SDS011;46021;55.882;37.654;2023-08-31T06:56:21;10.18;;;6.22;;
50671;SDS011;46021;55.882;37.654;2023-08-31T06:58:48;13.60;;;7.30;;
50671;SDS011;46021;55.882;37.654;2023-08-31T07:01:15;9.68;;;6.43;;
50671;SDS011;46021;55.882;37.654;2023-08-31T07:03:42;11.52;;;5.70;;
50671;SDS011;46021;55.882;37.654;2023-08-31T07:06:10;14.50;;;5.95;;
50671;SDS011;46021;55.882;37.654;2023-08-31T07:08:37;21.20;;;6.45;;
50671;SDS011;46021;55.882;37.654;2023-08-31T07:11:05;17.73;;;5.75;;
50671;SDS011;46021;55.882;37.654;2023-08-31T07:13:32;9.70;;;5.60;;
50671;SDS011;46021;55.882;37.654;2023-08-31T07:15:59;14.63;;;9.65;;
50671;SDS011;46021;55.882;37.654;2023-08-31T07:18:26;12.40;;;6.10;;
50671;SDS011;46021;55.882;37.654;2023-08-31T07:20:53;13.80;;;6.55;;
50671;SDS011;46021;55.882;37.654;2023-08-31T07:23:22;7.80;;;5.00;;
50671;SDS011;46021;55.882;37.654;2023-08-31T07:25:49;12.13;;;5.60;;
50671;SDS011;46021;55.882;37.654;2023-08-31T07:28:16;10.50;;;5.45;;
50671;SDS011;46021;55.882;37.654;2023-08-31T07:30:43;8.80;;;5.65;;
50671;SDS011;46021;55.882;37.654;2023-08-31T07:33:10;10.45;;;5.88;;
50671;SDS011;46021;55.882;37.654;2023-08-31T07:35:37;8.18;;;5.25;;
50671;SDS011;46021;55.882;37.654;2023-08-31T07:38:04;10.45;;;5.63;;
50671;SDS011;46021;55.882;37.654;2023-08-31T07:40:33;9.45;;;6.15;;
50671;SDS011;46021;55.882;37.654;2023-08-31T07:42:59;9.65;;;5.15;;
50671;SDS011;46021;55.882;37.654;2023-08-31T07:45:26;11.68;;;5.15;;
50671;SDS011;46021;55.882;37.654;2023-08-31T07:47:53;12.43;;;6.10;;
50671;SDS011;46021;55.882;37.654;2023-08-31T07:50:21;10.52;;;5.57;;
50671;SDS011;46021;55.882;37.654;2023-08-31T07:52:47;9.70;;;5.88;;
50671;SDS011;46021;55.882;37.654;2023-08-31T07:55:14;12.82;;;6.05;;
50671;SDS011;46021;55.882;37.654;2023-08-31T07:57:43;14.18;;;6.97;;
50671;SDS011;46021;55.882;37.654;2023-08-31T08:00:10;12.27;;;5.93;;
50671;SDS011;46021;55.882;37.654;2023-08-31T08:02:40;10.55;;;5.40;;
50671;SDS011;46021;55.882;37.654;2023-08-31T08:05:07;10.88;;;6.25;;
50671;SDS011;46021;55.882;37.654;2023-08-31T08:07:34;12.20;;;5.15;;
50671;SDS011;46021;55.882;37.654;2023-08-31T08:10:01;13.30;;;6.45;;
50671;SDS011;46021;55.882;37.654;2023-08-31T08:12:36;9.10;;;6.03;;
50671;SDS011;46021;55.882;37.654;2023-08-31T08:15:05;11.70;;;6.63;;
50671;SDS011;46021;55.882;37.654;2023-08-31T08:17:33;9.93;;;5.80;;
50671;SDS011;46021;55.882;37.654;2023-08-31T08:20:00;14.57;;;6.55;;
50671;SDS011;46021;55.882;37.654;2023-08-31T08:22:27;15.32;;;5.57;;
50671;SDS011;46021;55.882;37.654;2023-08-31T08:24:54;11.57;;;5.45;;
50671;SDS011;46021;55.882;37.654;2023-08-31T08:27:21;11.23;;;5.78;;
50671;SDS011;46021;55.882;37.654;2023-08-31T08:29:48;10.32;;;5.65;;
50671;SDS011;46021;55.882;37.654;2023-08-31T08:32:16;10.30;;;5.22;;
50671;SDS011;46021;55.882;37.654;2023-08-31T08:34:43;10.82;;;5.65;;
50671;SDS011;46021;55.882;37.654;2023-08-31T08:37:10;15.80;;;5.10;;
50671;SDS011;46021;55.882;37.654;2023-08-31T08:39:37;11.13;;;5.50;;
50671;SDS011;46021;55.882;37.654;2023-08-31T08:42:04;9.13;;;4.85;;
50671;SDS011;46021;55.882;37.654;2023-08-31T08:44:35;9.50;;;4.88;;
50671;SDS011;46021;55.882;37.654;2023-08-31T08:47:03;8.30;;;5.30;;
50671;SDS011;46021;55.882;37.654;2023-08-31T08:49:32;8.00;;;5.10;;
50671;SDS011;46021;55.882;37.654;2023-08-31T08:52:01;6.90;;;4.50;;
50671;SDS011;46021;55.882;37.654;2023-08-31T08:54:28;7.15;;;4.18;;
50671;SDS011;46021;55.882;37.654;2023-08-31T08:56:56;10.18;;;4.70;;
50671;SDS011;46021;55.882;37.654;2023-08-31T08:59:23;13.00;;;4.57;;
50671;SDS011;46021;55.882;37.654;2023-08-31T09:01:50;8.57;;;4.25;;
50671;SDS011;46021;55.882;37.654;2023-08-31T09:04:17;7.57;;;4.25;;
50671;SDS011;46021;55.882;37.654;2023-08-31T09:06:47;8.15;;;3.63;;
50671;SDS011;46021;55.882;37.654;2023-08-31T09:09:14;10.75;;;4.22;;
50671;SDS011;46021;55.882;37.654;2023-08-31T09:11:42;36.28;;;6.70;;
50671;SDS011;46021;55.882;37.654;2023-08-31T09:14:15;12.52;;;4.00;;
50671;SDS011;46021;55.882;37.654;2023-08-31T09:16:44;10.30;;;4.22;;
50671;SDS011;46021;55.882;37.654;2023-08-31T09:19:18;8.05;;;3.67;;
50671;SDS011;46021;55.882;37.654;2023-08-31T09:21:48;6.28;;;3.95;;
50671;SDS011;46021;55.882;37.654;2023-08-31T09:24:15;7.75;;;3.78;;
50671;SDS011;46021;55.882;37.654;2023-08-31T09:26:43;8.52;;;3.60;;
50671;SDS011;46021;55.882;37.654;2023-08-31T09:29:11;8.57;;;3.97;;
50671;SDS011;46021;55.882;37.654;2023-08-31T09:31:41;7.53;;;4.72;;
50671;SDS011;46021;55.882;37.654;2023-08-31T09:34:09;9.55;;;4.50;;
50671;SDS011;46021;55.882;37.654;2023-08-31T09:36:36;7.93;;;3.83;;
50671;SDS011;46021;55.882;37.654;2023-08-31T09:39:06;11.90;;;4.18;;
50671;SDS011;46021;55.882;37.654;2023-08-31T09:41:34;8.13;;;3.65;;
50671;SDS011;46021;55.882;37.654;2023-08-31T09:44:14;10.25;;;3.55;;
50671;SDS011;46021;55.882;37.654;2023-08-31T09:46:42;8.02;;;4.05;;
50671;SDS011;46021;55.882;37.654;2023-08-31T09:49:10;18.95;;;4.82;;
50671;SDS011;46021;55.882;37.654;2023-08-31T09:51:39;5.95;;;3.70;;
50671;SDS011;46021;55.882;37.654;2023-08-31T09:54:13;10.00;;;3.85;;
50671;SDS011;46021;55.882;37.654;2023-08-31T09:56:41;6.00;;;3.88;;
50671;SDS011;46021;55.882;37.654;2023-08-31T09:59:09;7.20;;;3.90;;
50671;SDS011;46021;55.882;37.654;2023-08-31T10:01:37;10.10;;;4.32;;
50671;SDS011;46021;55.882;37.654;2023-08-31T10:04:05;7.18;;;3.85;;
50671;SDS011;46021;55.882;37.654;2023-08-31T10:06:34;9.00;;;4.00;;
50671;SDS011;46021;55.882;37.654;2023-08-31T10:09:03;8.68;;;3.65;;
50671;SDS011;46021;55.882;37.654;2023-08-31T10:11:32;7.47;;;4.03;;
50671;SDS011;46021;55.882;37.654;2023-08-31T10:13:59;7.88;;;3.80;;
50671;SDS011;46021;55.882;37.654;2023-08-31T10:16:29;8.25;;;3.60;;
50671;SDS011;46021;55.882;37.654;2023-08-31T10:18:57;13.13;;;3.83;;
50671;SDS011;46021;55.882;37.654;2023-08-31T10:21:24;12.90;;;3.90;;
50671;SDS011;46021;55.882;37.654;2023-08-31T10:23:51;10.40;;;4.13;;
50671;SDS011;46021;55.882;37.654;2023-08-31T10:26:22;7.63;;;3.22;;
50671;SDS011;46021;55.882;37.654;2023-08-31T10:28:52;6.15;;;3.58;;
50671;SDS011;46021;55.882;37.654;2023-08-31T10:31:20;11.32;;;3.35;;
50671;SDS011;46021;55.882;37.654;2023-08-31T10:33:54;8.55;;;3.00;;
50671;SDS011;46021;55.882;37.654;2023-08-31T10:36:25;9.38;;;3.42;;
50671;SDS011;46021;55.882;37.654;2023-08-31T10:39:04;10.60;;;3.55;;
50671;SDS011;46021;55.882;37.654;2023-08-31T10:41:33;6.85;;;3.45;;
50671;SDS011;46021;55.882;37.654;2023-08-31T10:44:03;13.70;;;3.42;;
50671;SDS011;46021;55.882;37.654;2023-08-31T10:46:44;11.38;;;3.83;;
50671;SDS011;46021;55.882;37.654;2023-08-31T10:49:13;7.07;;;3.50;;
50671;SDS011;46021;55.882;37.654;2023-08-31T10:51:43;12.15;;;4.22;;
50671;SDS011;46021;55.882;37.654;2023-08-31T10:54:11;6.15;;;3.30;;
50671;SDS011;46021;55.882;37.654;2023-08-31T10:56:52;10.38;;;3.38;;
50671;SDS011;46021;55.882;37.654;2023-08-31T10:59:22;8.02;;;3.60;;
50671;SDS011;46021;55.882;37.654;2023-08-31T11:01:51;5.13;;;3.35;;
50671;SDS011;46021;55.882;37.654;2023-08-31T11:04:19;5.93;;;3.28;;
50671;SDS011;46021;55.882;37.654;2023-08-31T11:06:46;8.40;;;3.58;;
50671;SDS011;46021;55.882;37.654;2023-08-31T11:09:17;6.43;;;3.58;;
50671;SDS011;46021;55.882;37.654;2023-08-31T11:11:45;7.90;;;3.95;;
50671;SDS011;46021;55.882;37.654;2023-08-31T11:14:13;8.52;;;3.67;;
50671;SDS011;46021;55.882;37.654;2023-08-31T11:16:42;7.32;;;3.10;;
50671;SDS011;46021;55.882;37.654;2023-08-31T11:19:10;5.95;;;3.03;;
50671;SDS011;46021;55.882;37.654;2023-08-31T11:21:37;5.95;;;3.38;;
50671;SDS011;46021;55.882;37.654;2023-08-31T11:24:04;8.02;;;3.78;;
50671;SDS011;46021;55.882;37.654;2023-08-31T11:26:33;10.38;;;3.63;;
50671;SDS011;46021;55.882;37.654;2023-08-31T11:29:00;9.93;;;3.72;;
50671;SDS011;46021;55.882;37.654;2023-08-31T11:31:28;8.23;;;3.65;;
50671;SDS011;46021;55.882;37.654;2023-08-31T11:33:56;9.70;;;3.70;;
50671;SDS011;46021;55.882;37.654;2023-08-31T11:36:23;12.10;;;3.65;;
50671;SDS011;46021;55.882;37.654;2023-08-31T11:38:51;10.18;;;3.55;;
50671;SDS011;46021;55.882;37.654;2023-08-31T11:41:19;7.22;;;3.75;;
50671;SDS011;46021;55.882;37.654;2023-08-31T11:43:46;10.45;;;3.30;;
50671;SDS011;46021;55.882;37.654;2023-08-31T11:46:15;8.45;;;3.78;;
50671;SDS011;46021;55.882;37.654;2023-08-31T11:48:43;7.10;;;3.35;;
50671;SDS011;46021;55.882;37.654;2023-08-31T11:51:12;5.03;;;3.42;;
50671;SDS011;46021;55.882;37.654;2023-08-31T11:53:40;10.30;;;3.40;;
50671;SDS011;46021;55.882;37.654;2023-08-31T11:56:07;10.10;;;3.55;;
50671;SDS011;46021;55.882;37.654;2023-08-31T11:58:39;10.90;;;3.63;;
50671;SDS011;46021;55.882;37.654;2023-08-31T12:01:08;10.35;;;3.05;;
50671;SDS011;46021;55.882;37.654;2023-08-31T12:03:41;5.20;;;3.63;;
50671;SDS011;46021;55.882;37.654;2023-08-31T12:06:11;7.75;;;4.10;;
50671;SDS011;46021;55.882;37.654;2023-08-31T12:08:41;6.47;;;3.40;;
50671;SDS011;46021;55.882;37.654;2023-08-31T12:11:08;6.72;;;3.47;;
50671;SDS011;46021;55.882;37.654;2023-08-31T12:13:35;7.25;;;3.35;;
50671;SDS011;46021;55.882;37.654;2023-08-31T12:16:03;7.85;;;3.70;;
50671;SDS011;46021;55.882;37.654;2023-08-31T12:18:30;6.10;;;3.55;;
50671;SDS011;46021;55.882;37.654;2023-08-31T12:20:58;8.05;;;3.35;;
50671;SDS011;46021;55.882;37.654;2023-08-31T12:23:26;9.02;;;3.60;;
50671;SDS011;46021;55.882;37.654;2023-08-31T12:25:53;6.78;;;3.85;;
50671;SDS011;46021;55.882;37.654;2023-08-31T12:28:21;8.93;;;3.72;;
50671;SDS011;46021;55.882;37.654;2023-08-31T12:30:50;8.07;;;3.80;;
50671;SDS011;46021;55.882;37.654;2023-08-31T12:33:19;8.35;;;3.45;;
50671;SDS011;46021;55.882;37.654;2023-08-31T12:35:47;10.60;;;4.00;;
50671;SDS011;46021;55.882;37.654;2023-08-31T12:38:15;11.55;;;4.10;;
50671;SDS011;46021;55.882;37.654;2023-08-31T12:40:43;9.35;;;4.60;;
50671;SDS011;46021;55.882;37.654;2023-08-31T12:43:10;10.35;;;4.13;;
50671;SDS011;46021;55.882;37.654;2023-08-31T12:45:37;9.68;;;4.40;;
50671;SDS011;46021;55.882;37.654;2023-08-31T12:48:05;12.27;;;4.18;;
50671;SDS011;46021;55.882;37.654;2023-08-31T12:50:32;7.35;;;4.57;;
50671;SDS011;46021;55.882;37.654;2023-08-31T12:52:59;21.15;;;4.55;;
50671;SDS011;46021;55.882;37.654;2023-08-31T12:55:26;12.05;;;4.32;;
50671;SDS011;46021;55.882;37.654;2023-08-31T12:57:56;12.35;;;4.13;;
50671;SDS011;46021;55.882;37.654;2023-08-31T13:00:23;7.25;;;4.32;;
50671;SDS011;46021;55.882;37.654;2023-08-31T13:02:50;9.07;;;4.00;;
50671;SDS011;46021;55.882;37.654;2023-08-31T13:05:17;12.43;;;3.83;;
50671;SDS011;46021;55.882;37.654;2023-08-31T13:07:45;8.50;;;4.05;;
50671;SDS011;46021;55.882;37.654;2023-08-31T13:10:12;9.65;;;3.85;;
50671;SDS011;46021;55.882;37.654;2023-08-31T13:12:39;7.15;;;3.65;;
50671;SDS011;46021;55.882;37.654;2023-08-31T13:15:08;7.80;;;4.40;;
50671;SDS011;46021;55.882;37.654;2023-08-31T13:17:36;10.65;;;3.50;;
50671;SDS011;46021;55.882;37.654;2023-08-31T13:20:03;10.52;;;4.40;;
50671;SDS011;46021;55.882;37.654;2023-08-31T13:22:31;7.90;;;4.00;;
50671;SDS011;46021;55.882;37.654;2023-08-31T13:24:58;10.82;;;4.60;;
50671;SDS011;46021;55.882;37.654;2023-08-31T13:27:27;11.82;;;4.38;;
50671;SDS011;46021;55.882;37.654;2023-08-31T13:29:54;10.15;;;4.15;;
50671;SDS011;46021;55.882;37.654;2023-08-31T13:32:23;6.20;;;3.92;;
50671;SDS011;46021;55.882;37.654;2023-08-31T13:34:51;8.88;;;4.38;;
50671;SDS011;46021;55.882;37.654;2023-08-31T13:37:18;10.00;;;4.50;;
50671;SDS011;46021;55.882;37.654;2023-08-31T13:42:12;11.40;;;4.72;;
50671;SDS011;46021;55.882;37.654;2023-08-31T13:47:06;8.48;;;4.63;;
50671;SDS011;46021;55.882;37.654;2023-08-31T13:49:34;7.80;;;4.40;;
50671;SDS011;46021;55.882;37.654;2023-08-31T13:52:01;6.55;;;3.83;;
50671;SDS011;46021;55.882;37.654;2023-08-31T13:54:31;8.15;;;4.38;;
50671;SDS011;46021;55.882;37.654;2023-08-31T13:56:58;7.82;;;3.53;;
50671;SDS011;46021;55.882;37.654;2023-08-31T13:59:25;10.00;;;4.60;;
50671;SDS011;46021;55.882;37.654;2023-08-31T14:01:53;10.48;;;4.88;;
50671;SDS011;46021;55.882;37.654;2023-08-31T14:04:20;13.00;;;4.30;;
50671;SDS011;46021;55.882;37.654;2023-08-31T14:06:49;11.80;;;4.18;;
50671;SDS011;46021;55.882;37.654;2023-08-31T14:09:16;12.52;;;4.30;;
50671;SDS011;46021;55.882;37.654;2023-08-31T14:11:44;10.07;;;4.00;;
50671;SDS011;46021;55.882;37.654;2023-08-31T14:16:38;8.82;;;4.63;;
50671;SDS011;46021;55.882;37.654;2023-08-31T14:19:06;7.72;;;4.10;;
50671;SDS011;46021;55.882;37.654;2023-08-31T14:21:33;9.80;;;4.80;;
50671;SDS011;46021;55.882;37.654;2023-08-31T14:24:02;11.68;;;4.30;;
50671;SDS011;46021;55.882;37.654;2023-08-31T14:26:29;6.55;;;4.10;;
50671;SDS011;46021;55.882;37.654;2023-08-31T14:28:56;7.93;;;3.92;;
50671;SDS011;46021;55.882;37.654;2023-08-31T14:31:23;5.97;;;3.92;;
50671;SDS011;46021;55.882;37.654;2023-08-31T14:33:50;12.60;;;4.75;;
50671;SDS011;46021;55.882;37.654;2023-08-31T14:36:18;10.10;;;4.55;;
50671;SDS011;46021;55.882;37.654;2023-08-31T14:38:45;12.90;;;4.35;;
50671;SDS011;46021;55.882;37.654;2023-08-31T14:41:13;11.32;;;4.57;;
50671;SDS011;46021;55.882;37.654;2023-08-31T14:43:41;8.98;;;3.60;;